createdAt,value
2018-09-18T00:00:04.852Z,928.28
2018-09-18T00:01:04.783Z,928.25
2018-09-18T00:02:04.746Z,928.19
2018-09-18T00:03:08.756Z,928.21
2018-09-18T00:04:04.660Z,928.23
2018-09-18T00:05:04.614Z,928.25
2018-09-18T00:06:04.564Z,928.28
2018-09-18T00:07:04.515Z,928.27
2018-09-18T00:08:04.466Z,928.27
2018-09-18T00:09:04.691Z,928.30
2018-09-18T00:10:04.390Z,928.31
2018-09-18T00:11:04.346Z,928.36
2018-09-18T00:12:04.288Z,928.36
2018-09-18T00:13:04.245Z,928.44
2018-09-18T00:14:04.190Z,928.44
2018-09-18T00:15:04.406Z,928.45
2018-09-18T00:16:04.094Z,928.42
2018-09-18T00:17:04.059Z,928.49
2018-09-18T00:18:04.013Z,928.54
2018-09-18T00:19:03.987Z,928.56
2018-09-18T00:20:03.907Z,928.55
2018-09-18T00:21:04.183Z,928.63
2018-09-18T00:22:03.824Z,928.65
2018-09-18T00:23:03.780Z,928.70
2018-09-18T00:24:03.741Z,928.68
2018-09-18T00:25:03.686Z,928.69
2018-09-18T00:26:03.636Z,928.71
2018-09-18T00:27:03.893Z,928.68
2018-09-18T00:28:03.545Z,928.57
2018-09-18T00:29:03.505Z,928.59
2018-09-18T00:30:03.441Z,928.62
2018-09-18T00:31:03.416Z,928.61
2018-09-18T00:32:03.356Z,928.58
2018-09-18T00:33:03.427Z,928.58
2018-09-18T00:34:03.262Z,928.57
2018-09-18T00:35:03.229Z,928.54
2018-09-18T00:36:03.167Z,928.59
2018-09-18T00:37:03.141Z,928.56
2018-09-18T00:38:03.082Z,928.57
2018-09-18T00:39:03.148Z,928.60
2018-09-18T00:40:02.986Z,928.56
2018-09-18T00:41:02.947Z,928.52
2018-09-18T00:42:02.905Z,928.49
2018-09-18T00:43:02.854Z,928.48
2018-09-18T00:44:02.830Z,928.46
2018-09-18T00:45:02.846Z,928.46
2018-09-18T00:46:02.714Z,928.49
2018-09-18T00:47:02.673Z,928.48
2018-09-18T00:48:02.627Z,928.47
2018-09-18T00:49:02.581Z,928.43
2018-09-18T00:50:02.510Z,928.41
2018-09-18T00:51:02.570Z,928.43
2018-09-18T00:52:02.446Z,928.49
2018-09-18T00:53:02.402Z,928.54
2018-09-18T00:54:02.328Z,928.57
2018-09-18T00:55:02.282Z,928.59
2018-09-18T00:56:02.254Z,928.61
2018-09-18T00:57:02.501Z,928.64
2018-09-18T00:58:02.165Z,928.66
2018-09-18T00:59:02.130Z,928.69
2018-09-18T01:00:02.070Z,928.64
2018-09-18T01:01:02.024Z,928.69
2018-09-18T01:02:01.979Z,928.67
2018-09-18T01:03:02.031Z,928.68
2018-09-18T01:04:01.879Z,928.67
2018-09-18T01:05:01.829Z,928.65
2018-09-18T01:06:01.777Z,928.61
2018-09-18T01:07:01.756Z,928.58
2018-09-18T01:08:01.681Z,928.51
2018-09-18T01:09:01.895Z,928.48
2018-09-18T01:11:01.545Z,928.49
2018-09-18T01:12:01.495Z,928.49
2018-09-18T01:13:01.476Z,928.54
2018-09-18T01:14:01.536Z,928.53
2018-09-18T01:15:01.669Z,928.54
2018-09-18T01:16:01.328Z,928.61
2018-09-18T01:17:01.275Z,928.56
2018-09-18T01:18:01.223Z,928.54
2018-09-18T01:19:01.178Z,928.58
2018-09-18T01:20:01.139Z,928.56
2018-09-18T01:21:01.381Z,928.57
2018-09-18T01:22:01.047Z,928.59
2018-09-18T01:23:01.009Z,928.55
2018-09-18T01:24:00.949Z,928.56
2018-09-18T01:25:00.903Z,928.49
2018-09-18T01:26:00.856Z,928.49
2018-09-18T01:27:01.053Z,928.49
2018-09-18T01:28:00.749Z,928.51
2018-09-18T01:29:00.719Z,928.47
2018-09-18T01:30:00.667Z,928.46
2018-09-18T01:31:00.628Z,928.49
2018-09-18T01:32:00.583Z,928.49
2018-09-18T01:33:00.631Z,928.48
2018-09-18T01:34:00.486Z,928.48
2018-09-18T01:35:00.443Z,928.47
2018-09-18T01:36:00.388Z,928.44
2018-09-18T01:37:00.353Z,928.44
2018-09-18T01:38:00.307Z,928.42
2018-09-18T01:39:00.353Z,928.37
2018-09-18T01:40:00.214Z,928.43
2018-09-18T01:41:00.149Z,928.36
2018-09-18T01:42:00.113Z,928.41
2018-09-18T01:43:00.070Z,928.39
2018-09-18T01:44:00.021Z,928.39
2018-09-18T01:45:00.077Z,928.38
2018-09-18T01:45:59.927Z,928.37
2018-09-18T01:46:59.869Z,928.37
2018-09-18T01:47:59.843Z,928.42
2018-09-18T01:48:59.796Z,928.43
2018-09-18T01:49:59.758Z,928.48
2018-09-18T01:50:59.808Z,928.47
2018-09-18T01:51:59.655Z,928.43
2018-09-18T01:52:59.600Z,928.45
2018-09-18T01:53:59.552Z,928.45
2018-09-18T01:54:59.498Z,928.45
2018-09-18T01:55:59.459Z,928.42
2018-09-18T01:56:59.519Z,928.37
2018-09-18T01:57:59.370Z,928.39
2018-09-18T01:58:59.331Z,928.38
2018-09-18T01:59:59.285Z,928.39
2018-09-18T02:00:59.231Z,928.43
2018-09-18T02:01:59.195Z,928.42
2018-09-18T02:02:59.244Z,928.50
2018-09-18T02:03:59.100Z,928.48
2018-09-18T02:04:59.042Z,928.40
2018-09-18T02:05:59.007Z,928.42
2018-09-18T02:06:58.944Z,928.45
2018-09-18T02:07:58.912Z,928.49
2018-09-18T02:08:58.969Z,928.56
2018-09-18T02:09:58.815Z,928.57
2018-09-18T02:10:58.777Z,928.56
2018-09-18T02:11:58.721Z,928.52
2018-09-18T02:12:58.677Z,928.53
2018-09-18T02:13:58.631Z,928.53
2018-09-18T02:14:58.691Z,928.54
2018-09-18T02:15:58.532Z,928.54
2018-09-18T02:16:58.493Z,928.52
2018-09-18T02:17:58.435Z,928.51
2018-09-18T02:18:58.398Z,928.45
2018-09-18T02:19:58.450Z,928.44
2018-09-18T02:20:58.300Z,928.41
2018-09-18T02:21:58.253Z,928.35
2018-09-18T02:22:58.208Z,928.32
2018-09-18T02:23:58.183Z,928.35
2018-09-18T02:24:58.128Z,928.36
2018-09-18T02:25:58.193Z,928.30
2018-09-18T02:26:58.041Z,928.27
2018-09-18T02:27:57.985Z,928.24
2018-09-18T02:28:57.939Z,928.23
2018-09-18T02:29:57.884Z,928.18
2018-09-18T02:30:57.846Z,928.16
2018-09-18T02:31:57.904Z,928.10
2018-09-18T02:32:57.749Z,928.11
2018-09-18T02:33:57.692Z,928.10
2018-09-18T02:34:57.654Z,928.10
2018-09-18T02:35:57.608Z,928.15
2018-09-18T02:36:57.551Z,928.18
2018-09-18T02:37:57.618Z,928.20
2018-09-18T02:38:57.470Z,928.17
2018-09-18T02:39:57.420Z,928.16
2018-09-18T02:40:57.382Z,928.14
2018-09-18T02:41:57.337Z,928.09
2018-09-18T02:42:57.295Z,928.14
2018-09-18T02:43:57.338Z,928.14
2018-09-18T02:44:57.192Z,928.20
2018-09-18T02:45:57.143Z,928.20
2018-09-18T02:46:57.098Z,928.22
2018-09-18T02:47:57.046Z,928.18
2018-09-18T02:48:57.013Z,928.20
2018-09-18T02:49:57.070Z,928.19
2018-09-18T02:50:56.915Z,928.18
2018-09-18T02:51:56.870Z,928.12
2018-09-18T02:52:56.821Z,928.11
2018-09-18T02:53:56.785Z,928.08
2018-09-18T02:54:56.733Z,928.11
2018-09-18T02:55:56.793Z,928.16
2018-09-18T02:56:56.623Z,928.16
2018-09-18T02:57:56.589Z,928.15
2018-09-18T02:58:56.542Z,928.09
2018-09-18T02:59:56.500Z,928.03
2018-09-18T03:00:56.450Z,928.02
2018-09-18T03:01:56.507Z,927.92
2018-09-18T03:02:56.346Z,927.92
2018-09-18T03:03:56.321Z,927.93
2018-09-18T03:04:56.262Z,927.90
2018-09-18T03:05:56.219Z,927.82
2018-09-18T03:06:56.171Z,927.87
2018-09-18T03:07:56.217Z,927.83
2018-09-18T03:08:56.079Z,927.86
2018-09-18T03:09:56.037Z,927.88
2018-09-18T03:10:55.984Z,927.85
2018-09-18T03:11:55.945Z,927.88
2018-09-18T03:12:55.893Z,927.86
2018-09-18T03:13:55.992Z,927.84
2018-09-18T03:14:55.790Z,927.88
2018-09-18T03:15:55.764Z,927.86
2018-09-18T03:16:55.707Z,927.92
2018-09-18T03:17:55.648Z,927.90
2018-09-18T03:18:55.606Z,927.87
2018-09-18T03:19:55.679Z,927.89
2018-09-18T03:20:55.588Z,927.87
2018-09-18T03:21:55.480Z,927.85
2018-09-18T03:22:55.424Z,927.84
2018-09-18T03:23:55.378Z,927.86
2018-09-18T03:24:55.340Z,927.84
2018-09-18T03:25:55.385Z,927.89
2018-09-18T03:26:55.249Z,927.88
2018-09-18T03:27:55.210Z,927.87
2018-09-18T03:28:55.152Z,927.93
2018-09-18T03:29:55.101Z,927.90
2018-09-18T03:30:55.160Z,927.91
2018-09-18T03:31:55.009Z,927.94
2018-09-18T03:32:54.967Z,927.91
2018-09-18T03:33:54.918Z,927.90
2018-09-18T03:34:54.881Z,927.89
2018-09-18T03:35:54.841Z,927.88
2018-09-18T03:36:54.887Z,927.93
2018-09-18T03:37:54.726Z,927.95
2018-09-18T03:38:54.676Z,927.96
2018-09-18T03:39:54.633Z,927.89
2018-09-18T03:40:54.586Z,927.88
2018-09-18T03:41:54.554Z,927.86
2018-09-18T03:42:54.602Z,927.80
2018-09-18T03:43:54.444Z,927.75
2018-09-18T03:44:54.420Z,927.70
2018-09-18T03:45:54.366Z,927.65
2018-09-18T03:46:54.308Z,927.65
2018-09-18T03:47:54.279Z,927.61
2018-09-18T03:48:54.331Z,927.64
2018-09-18T03:49:54.185Z,927.59
2018-09-18T03:50:54.134Z,927.57
2018-09-18T03:51:54.083Z,927.60
2018-09-18T03:52:54.043Z,927.59
2018-09-18T03:53:54.003Z,927.58
2018-09-18T03:54:54.046Z,927.59
2018-09-18T03:55:53.908Z,927.55
2018-09-18T03:56:53.853Z,927.57
2018-09-18T03:57:53.807Z,927.53
2018-09-18T03:58:53.772Z,927.57
2018-09-18T03:59:53.738Z,927.48
2018-09-18T04:00:53.767Z,927.46
2018-09-18T04:01:53.626Z,927.46
2018-09-18T04:02:53.636Z,927.52
2018-09-18T04:03:53.525Z,927.46
2018-09-18T04:04:53.488Z,927.47
2018-09-18T04:05:53.440Z,927.52
2018-09-18T04:06:53.490Z,927.57
2018-09-18T04:07:53.355Z,927.57
2018-09-18T04:08:53.297Z,927.57
2018-09-18T04:09:53.262Z,927.56
2018-09-18T04:10:53.204Z,927.59
2018-09-18T04:11:53.167Z,927.55
2018-09-18T04:12:53.217Z,927.58
2018-09-18T04:13:53.081Z,927.49
2018-09-18T04:14:53.008Z,927.51
2018-09-18T04:15:52.971Z,927.47
2018-09-18T04:16:52.935Z,927.48
2018-09-18T04:17:52.885Z,927.42
2018-09-18T04:18:52.943Z,927.38
2018-09-18T04:19:52.782Z,927.39
2018-09-18T04:20:52.743Z,927.36
2018-09-18T04:21:52.700Z,927.33
2018-09-18T04:22:52.648Z,927.33
2018-09-18T04:23:52.609Z,927.33
2018-09-18T04:24:52.659Z,927.32
2018-09-18T04:25:52.518Z,927.29
2018-09-18T04:26:52.467Z,927.28
2018-09-18T04:27:52.416Z,927.29
2018-09-18T04:28:52.372Z,927.28
2018-09-18T04:29:52.322Z,927.26
2018-09-18T04:30:52.389Z,927.28
2018-09-18T04:31:52.220Z,927.31
2018-09-18T04:32:52.201Z,927.30
2018-09-18T04:33:52.134Z,927.28
2018-09-18T04:34:52.100Z,927.29
2018-09-18T04:35:52.047Z,927.30
2018-09-18T04:36:52.101Z,927.22
2018-09-18T04:37:51.950Z,927.24
2018-09-18T04:38:51.910Z,927.23
2018-09-18T04:39:51.847Z,927.21
2018-09-18T04:40:51.806Z,927.20
2018-09-18T04:41:51.775Z,927.26
2018-09-18T04:42:51.824Z,927.23
2018-09-18T04:43:51.676Z,927.19
2018-09-18T04:44:51.632Z,927.18
2018-09-18T04:45:51.635Z,927.19
2018-09-18T04:46:51.551Z,927.19
2018-09-18T04:47:51.492Z,927.17
2018-09-18T04:48:51.632Z,927.23
2018-09-18T04:49:51.396Z,927.22
2018-09-18T04:50:51.354Z,927.28
2018-09-18T04:51:51.296Z,927.26
2018-09-18T04:52:51.257Z,927.26
2018-09-18T04:53:51.231Z,927.28
2018-09-18T04:54:51.355Z,927.30
2018-09-18T04:55:51.126Z,927.29
2018-09-18T04:56:51.073Z,927.32
2018-09-18T04:57:51.030Z,927.36
2018-09-18T04:58:50.982Z,927.33
2018-09-18T04:59:50.932Z,927.36
2018-09-18T05:00:50.985Z,927.34
2018-09-18T05:01:50.845Z,927.35
2018-09-18T05:02:50.819Z,927.37
2018-09-18T05:03:50.742Z,927.31
2018-09-18T05:04:50.699Z,927.30
2018-09-18T05:05:50.654Z,927.25
2018-09-18T05:06:50.807Z,927.21
2018-09-18T05:07:50.548Z,927.18
2018-09-18T05:08:50.517Z,927.13
2018-09-18T05:09:50.478Z,927.11
2018-09-18T05:10:50.410Z,927.04
2018-09-18T05:11:50.385Z,927.04
2018-09-18T05:12:50.532Z,927.09
2018-09-18T05:13:50.293Z,927.11
2018-09-18T05:14:50.270Z,927.11
2018-09-18T05:15:50.193Z,927.02
2018-09-18T05:16:50.141Z,926.98
2018-09-18T05:17:50.086Z,926.93
2018-09-18T05:18:50.246Z,926.89
2018-09-18T05:19:50.010Z,926.94
2018-09-18T05:20:49.971Z,926.86
2018-09-18T05:21:49.921Z,926.89
2018-09-18T05:22:49.879Z,926.91
2018-09-18T05:23:49.808Z,926.94
2018-09-18T05:24:49.966Z,926.98
2018-09-18T05:25:49.719Z,926.99
2018-09-18T05:26:49.674Z,927.00
2018-09-18T05:27:49.640Z,927.01
2018-09-18T05:28:49.590Z,926.97
2018-09-18T05:29:49.534Z,926.91
2018-09-18T05:30:49.683Z,926.89
2018-09-18T05:31:49.435Z,926.88
2018-09-18T05:32:49.383Z,926.83
2018-09-18T05:33:49.413Z,926.89
2018-09-18T05:34:49.290Z,926.87
2018-09-18T05:35:49.261Z,926.87
2018-09-18T05:36:49.412Z,926.88
2018-09-18T05:37:49.162Z,926.89
2018-09-18T05:38:49.106Z,926.92
2018-09-18T05:39:49.080Z,926.94
2018-09-18T05:40:49.033Z,926.88
2018-09-18T05:41:49.023Z,926.88
2018-09-18T05:42:49.135Z,926.85
2018-09-18T05:43:48.896Z,926.85
2018-09-18T05:44:48.840Z,926.81
2018-09-18T05:45:48.793Z,926.86
2018-09-18T05:46:48.737Z,926.85
2018-09-18T05:47:48.699Z,926.86
2018-09-18T05:48:48.850Z,926.82
2018-09-18T05:49:48.620Z,926.82
2018-09-18T05:50:48.567Z,926.89
2018-09-18T05:51:48.532Z,926.88
2018-09-18T05:52:48.474Z,926.86
2018-09-18T05:53:48.419Z,926.84
2018-09-18T05:54:48.576Z,926.83
2018-09-18T05:55:48.334Z,926.80
2018-09-18T05:56:48.281Z,926.79
2018-09-18T05:57:48.219Z,926.77
2018-09-18T05:58:48.185Z,926.76
2018-09-18T05:59:48.134Z,926.80
2018-09-18T06:00:48.300Z,926.76
2018-09-18T06:01:48.034Z,926.78
2018-09-18T06:02:47.983Z,926.78
2018-09-18T06:03:48.002Z,926.82
2018-09-18T06:04:47.921Z,926.84
2018-09-18T06:05:47.868Z,926.86
2018-09-18T06:06:48.015Z,926.89
2018-09-18T06:07:47.759Z,926.85
2018-09-18T06:08:47.735Z,926.89
2018-09-18T06:09:47.670Z,926.90
2018-09-18T06:10:47.619Z,926.93
2018-09-18T06:11:47.589Z,926.91
2018-09-18T06:12:47.733Z,926.90
2018-09-18T06:13:47.479Z,926.96
2018-09-18T06:14:47.448Z,926.91
2018-09-18T06:15:47.404Z,926.93
2018-09-18T06:16:47.334Z,926.92
2018-09-18T06:17:47.294Z,926.95
2018-09-18T06:18:47.560Z,926.98
2018-09-18T06:19:47.211Z,926.98
2018-09-18T06:20:47.177Z,927.01
2018-09-18T06:21:47.101Z,927.03
2018-09-18T06:22:47.072Z,927.02
2018-09-18T06:23:47.024Z,927.08
2018-09-18T06:24:47.175Z,927.04
2018-09-18T06:25:46.933Z,927.02
2018-09-18T06:26:46.884Z,927.07
2018-09-18T06:27:46.848Z,927.07
2018-09-18T06:28:46.797Z,927.08
2018-09-18T06:29:46.757Z,927.04
2018-09-18T06:30:46.909Z,927.00
2018-09-18T06:31:46.644Z,926.99
2018-09-18T06:32:46.614Z,926.98
2018-09-18T06:33:46.547Z,926.99
2018-09-18T06:34:46.510Z,926.98
2018-09-18T06:35:46.466Z,926.94
2018-09-18T06:36:46.632Z,926.94
2018-09-18T06:37:46.398Z,926.93
2018-09-18T06:38:46.345Z,926.87
2018-09-18T06:39:46.284Z,926.84
2018-09-18T06:40:46.232Z,926.83
2018-09-18T06:41:46.192Z,926.82
2018-09-18T06:42:46.338Z,926.83
2018-09-18T06:43:46.098Z,926.82
2018-09-18T06:44:46.058Z,926.87
2018-09-18T06:45:45.986Z,926.86
2018-09-18T06:46:45.945Z,926.81
2018-09-18T06:47:45.913Z,926.84
2018-09-18T06:48:46.057Z,926.84
2018-09-18T06:49:45.804Z,926.82
2018-09-18T06:50:45.771Z,926.86
2018-09-18T06:51:45.723Z,926.88
2018-09-18T06:52:45.672Z,926.86
2018-09-18T06:53:45.618Z,926.87
2018-09-18T06:54:45.787Z,926.82
2018-09-18T06:55:45.542Z,926.84
2018-09-18T06:56:45.488Z,926.83
2018-09-18T06:57:45.452Z,926.83
2018-09-18T06:58:45.425Z,926.78
2018-09-18T06:59:45.334Z,926.80
2018-09-18T07:00:45.501Z,926.77
2018-09-18T07:01:45.255Z,926.83
2018-09-18T07:02:45.214Z,926.80
2018-09-18T07:03:45.158Z,926.80
2018-09-18T07:04:45.122Z,926.80
2018-09-18T07:05:45.182Z,926.79
2018-09-18T07:06:45.233Z,926.79
2018-09-18T07:07:45.003Z,926.86
2018-09-18T07:08:44.954Z,926.88
2018-09-18T07:09:44.883Z,926.90
2018-09-18T07:10:44.851Z,926.93
2018-09-18T07:11:44.802Z,926.96
2018-09-18T07:12:44.948Z,927.02
2018-09-18T07:13:44.694Z,927.02
2018-09-18T07:14:44.660Z,927.00
2018-09-18T07:15:44.603Z,927.02
2018-09-18T07:16:44.579Z,927.01
2018-09-18T07:17:44.509Z,926.98
2018-09-18T07:18:44.656Z,926.97
2018-09-18T07:19:44.408Z,927.01
2018-09-18T07:20:44.368Z,926.98
2018-09-18T07:21:44.331Z,926.99
2018-09-18T07:22:44.275Z,926.97
2018-09-18T07:23:44.244Z,926.96
2018-09-18T07:24:44.394Z,926.94
2018-09-18T07:25:44.136Z,926.92
2018-09-18T07:26:44.088Z,926.95
2018-09-18T07:27:44.051Z,926.95
2018-09-18T07:28:43.985Z,926.91
2018-09-18T07:29:43.967Z,926.90
2018-09-18T07:30:44.115Z,926.94
2018-09-18T07:31:43.870Z,926.96
2018-09-18T07:32:43.811Z,927.00
2018-09-18T07:33:43.804Z,926.99
2018-09-18T07:34:43.710Z,926.96
2018-09-18T07:35:43.671Z,926.96
2018-09-18T07:36:43.825Z,926.95
2018-09-18T07:37:43.574Z,926.99
2018-09-18T07:38:43.532Z,927.04
2018-09-18T07:39:43.476Z,927.04
2018-09-18T07:40:43.442Z,927.04
2018-09-18T07:42:43.557Z,927.05
2018-09-18T07:43:43.311Z,927.10
2018-09-18T07:44:43.259Z,927.08
2018-09-18T07:45:43.217Z,927.05
2018-09-18T07:46:43.164Z,927.08
2018-09-18T07:47:43.113Z,927.03
2018-09-18T07:48:43.257Z,927.01
2018-09-18T07:49:43.028Z,926.96
2018-09-18T07:50:43.014Z,927.00
2018-09-18T07:51:42.917Z,927.01
2018-09-18T07:52:42.880Z,926.96
2018-09-18T07:53:42.849Z,926.94
2018-09-18T07:54:42.989Z,926.87
2018-09-18T07:55:42.750Z,926.92
2018-09-18T07:56:42.690Z,926.92
2018-09-18T07:57:42.662Z,926.96
2018-09-18T07:58:42.613Z,926.95
2018-09-18T07:59:42.579Z,926.96
2018-09-18T08:00:42.707Z,926.95
2018-09-18T08:01:42.476Z,926.95
2018-09-18T08:02:42.417Z,926.96
2018-09-18T08:03:42.389Z,926.91
2018-09-18T08:04:42.306Z,926.95
2018-09-18T08:05:42.282Z,926.94
2018-09-18T08:06:42.430Z,926.96
2018-09-18T08:07:42.183Z,926.96
2018-09-18T08:08:42.147Z,926.94
2018-09-18T08:09:42.090Z,926.88
2018-09-18T08:10:42.070Z,926.93
2018-09-18T08:11:42.000Z,926.94
2018-09-18T08:12:42.147Z,926.90
2018-09-18T08:13:41.908Z,926.96
2018-09-18T08:14:41.852Z,926.93
2018-09-18T08:15:41.819Z,926.97
2018-09-18T08:16:41.762Z,926.94
2018-09-18T08:17:41.717Z,927.02
2018-09-18T08:18:41.947Z,926.99
2018-09-18T08:19:41.752Z,927.01
2018-09-18T08:20:41.588Z,927.01
2018-09-18T08:21:41.527Z,927.03
2018-09-18T08:22:41.472Z,927.08
2018-09-18T08:23:41.427Z,927.09
2018-09-18T08:24:41.592Z,927.14
2018-09-18T08:25:41.437Z,927.16
2018-09-18T08:26:41.296Z,927.14
2018-09-18T08:27:41.244Z,927.08
2018-09-18T08:28:41.217Z,927.08
2018-09-18T08:29:41.151Z,927.06
2018-09-18T08:30:41.326Z,926.95
2018-09-18T08:31:41.064Z,926.97
2018-09-18T08:32:41.139Z,927.01
2018-09-18T08:33:40.967Z,927.00
2018-09-18T08:34:40.910Z,927.03
2018-09-18T08:35:40.883Z,927.09
2018-09-18T08:36:41.009Z,927.05
2018-09-18T08:37:40.773Z,927.03
2018-09-18T08:38:40.730Z,927.02
2018-09-18T08:39:40.704Z,926.96
2018-09-18T08:40:40.677Z,926.94
2018-09-18T08:41:40.580Z,926.93
2018-09-18T08:42:40.762Z,926.94
2018-09-18T08:43:40.496Z,926.97
2018-09-18T08:44:40.492Z,926.97
2018-09-18T08:45:40.417Z,926.98
2018-09-18T08:46:40.385Z,926.95
2018-09-18T08:47:40.320Z,926.94
2018-09-18T08:48:40.469Z,926.93
2018-09-18T08:49:40.254Z,926.89
2018-09-18T08:50:40.180Z,926.88
2018-09-18T08:51:40.209Z,926.82
2018-09-18T08:52:40.138Z,926.84
2018-09-18T08:53:40.038Z,926.87
2018-09-18T08:54:40.202Z,926.86
2018-09-18T08:55:39.932Z,926.86
2018-09-18T08:56:39.880Z,926.84
2018-09-18T08:57:39.869Z,926.84
2018-09-18T08:58:39.795Z,926.91
2018-09-18T08:59:39.752Z,926.87
2018-09-18T09:00:39.910Z,926.90
2018-09-18T09:01:39.649Z,926.90
2018-09-18T09:02:39.607Z,926.91
2018-09-18T09:03:39.583Z,926.95
2018-09-18T09:04:39.512Z,926.93
2018-09-18T09:05:39.479Z,926.94
2018-09-18T09:06:39.636Z,926.95
2018-09-18T09:07:39.465Z,926.98
2018-09-18T09:08:39.427Z,926.98
2018-09-18T09:09:39.377Z,927.00
2018-09-18T09:10:39.252Z,926.96
2018-09-18T09:11:39.199Z,927.01
2018-09-18T09:12:39.327Z,927.04
2018-09-18T09:13:39.109Z,927.10
2018-09-18T09:14:39.117Z,927.11
2018-09-18T09:15:39.074Z,927.14
2018-09-18T09:16:38.960Z,927.18
2018-09-18T09:17:38.929Z,927.14
2018-09-18T09:18:39.161Z,927.15
2018-09-18T09:19:38.812Z,927.13
2018-09-18T09:20:38.786Z,927.12
2018-09-18T09:21:38.763Z,927.15
2018-09-18T09:22:38.719Z,927.18
2018-09-18T09:23:38.635Z,927.20
2018-09-18T09:24:38.797Z,927.22
2018-09-18T09:25:38.529Z,927.26
2018-09-18T09:26:38.583Z,927.27
2018-09-18T09:27:38.540Z,927.29
2018-09-18T09:28:38.416Z,927.32
2018-09-18T09:29:38.422Z,927.35
2018-09-18T09:30:38.548Z,927.35
2018-09-18T09:31:38.268Z,927.40
2018-09-18T09:32:38.214Z,927.35
2018-09-18T09:33:38.189Z,927.41
2018-09-18T09:34:38.134Z,927.45
2018-09-18T09:35:38.070Z,927.48
2018-09-18T09:36:38.221Z,927.49
2018-09-18T09:37:37.981Z,927.47
2018-09-18T09:38:37.974Z,927.51
2018-09-18T09:39:37.875Z,927.51
2018-09-18T09:40:37.821Z,927.55
2018-09-18T09:41:37.787Z,927.52
2018-09-18T09:42:37.933Z,927.56
2018-09-18T09:43:37.734Z,927.57
2018-09-18T09:44:37.646Z,927.56
2018-09-18T09:45:37.593Z,927.60
2018-09-18T09:46:37.555Z,927.62
2018-09-18T09:47:37.510Z,927.60
2018-09-18T09:48:37.652Z,927.66
2018-09-18T09:49:37.419Z,927.63
2018-09-18T09:50:37.375Z,927.63
2018-09-18T09:51:37.444Z,927.68
2018-09-18T09:52:37.267Z,927.67
2018-09-18T09:53:37.227Z,927.69
2018-09-18T09:54:37.426Z,927.69
2018-09-18T09:55:37.121Z,927.74
2018-09-18T09:56:37.086Z,927.76
2018-09-18T09:57:37.077Z,927.78
2018-09-18T09:58:36.999Z,927.75
2018-09-18T09:59:36.966Z,927.78
2018-09-18T10:00:37.107Z,927.76
2018-09-18T10:01:36.871Z,927.73
2018-09-18T10:02:36.807Z,927.70
2018-09-18T10:03:36.749Z,927.63
2018-09-18T10:04:36.713Z,927.65
2018-09-18T10:05:36.677Z,927.67
2018-09-18T10:06:36.831Z,927.62
2018-09-18T10:07:36.570Z,927.64
2018-09-18T10:08:36.733Z,927.66
2018-09-18T10:09:36.482Z,927.65
2018-09-18T10:10:36.515Z,927.67
2018-09-18T10:11:36.384Z,927.74
2018-09-18T10:12:36.541Z,927.73
2018-09-18T10:13:36.297Z,927.78
2018-09-18T10:14:36.249Z,927.78
2018-09-18T10:15:36.228Z,927.80
2018-09-18T10:16:36.160Z,927.81
2018-09-18T10:17:36.123Z,927.79
2018-09-18T10:18:36.265Z,927.84
2018-09-18T10:19:36.022Z,927.80
2018-09-18T10:20:35.984Z,927.81
2018-09-18T10:21:35.920Z,927.89
2018-09-18T10:22:35.876Z,927.91
2018-09-18T10:23:35.810Z,927.91
2018-09-18T10:24:36.003Z,927.98
2018-09-18T10:25:35.732Z,928.00
2018-09-18T10:26:35.737Z,928.06
2018-09-18T10:27:35.654Z,928.05
2018-09-18T10:28:35.596Z,928.05
2018-09-18T10:29:35.555Z,928.05
2018-09-18T10:30:35.722Z,928.03
2018-09-18T10:31:35.454Z,928.04
2018-09-18T10:32:35.445Z,928.05
2018-09-18T10:33:35.355Z,928.08
2018-09-18T10:34:35.317Z,928.12
2018-09-18T10:35:35.289Z,928.15
2018-09-18T10:36:35.428Z,928.14
2018-09-18T10:37:35.178Z,928.14
2018-09-18T10:38:35.135Z,928.17
2018-09-18T10:39:35.098Z,928.17
2018-09-18T10:40:35.033Z,928.20
2018-09-18T10:41:35.082Z,928.21
2018-09-18T10:42:35.206Z,928.21
2018-09-18T10:43:34.916Z,928.27
2018-09-18T10:44:34.862Z,928.28
2018-09-18T10:45:34.813Z,928.27
2018-09-18T10:46:34.773Z,928.30
2018-09-18T10:47:34.734Z,928.30
2018-09-18T10:48:34.868Z,928.33
2018-09-18T10:49:34.708Z,928.33
2018-09-18T10:50:34.579Z,928.35
2018-09-18T10:51:34.546Z,928.37
2018-09-18T10:52:34.489Z,928.36
2018-09-18T10:53:34.443Z,928.38
2018-09-18T10:54:34.611Z,928.42
2018-09-18T10:55:34.423Z,928.45
2018-09-18T10:56:34.281Z,928.44
2018-09-18T10:57:34.255Z,928.45
2018-09-18T10:58:34.190Z,928.41
2018-09-18T10:59:34.156Z,928.44
2018-09-18T11:00:34.336Z,928.47
2018-09-18T11:01:34.065Z,928.43
2018-09-18T11:02:34.027Z,928.45
2018-09-18T11:03:33.990Z,928.42
2018-09-18T11:04:33.925Z,928.47
2018-09-18T11:05:33.880Z,928.45
2018-09-18T11:06:34.030Z,928.44
2018-09-18T11:07:33.889Z,928.45
2018-09-18T11:08:33.745Z,928.41
2018-09-18T11:09:33.784Z,928.47
2018-09-18T11:10:33.719Z,928.50
2018-09-18T11:11:33.709Z,928.55
2018-09-18T11:12:33.737Z,928.56
2018-09-18T11:13:33.526Z,928.55
2018-09-18T11:14:33.539Z,928.54
2018-09-18T11:15:33.514Z,928.53
2018-09-18T11:16:33.533Z,928.59
2018-09-18T11:17:33.328Z,928.55
2018-09-18T11:18:33.450Z,928.59
2018-09-18T11:19:33.249Z,928.59
2018-09-18T11:20:33.190Z,928.57
2018-09-18T11:21:33.242Z,928.55
2018-09-18T11:22:33.089Z,928.58
2018-09-18T11:23:33.092Z,928.62
2018-09-18T11:24:33.099Z,928.54
2018-09-18T11:25:32.939Z,928.57
2018-09-18T11:26:32.901Z,928.58
2018-09-18T11:27:32.867Z,928.59
2018-09-18T11:28:32.823Z,928.55
2018-09-18T11:29:32.799Z,928.57
2018-09-18T11:30:33.009Z,928.60
2018-09-18T11:31:32.675Z,928.58
2018-09-18T11:32:32.726Z,928.61
2018-09-18T11:33:32.597Z,928.60
2018-09-18T11:34:32.551Z,928.56
2018-09-18T11:35:32.479Z,928.62
2018-09-18T11:36:32.741Z,928.63
2018-09-18T11:37:32.395Z,928.64
2018-09-18T11:38:32.353Z,928.67
2018-09-18T11:39:32.297Z,928.65
2018-09-18T11:40:32.230Z,928.73
2018-09-18T11:41:32.205Z,928.66
2018-09-18T11:42:32.406Z,928.64
2018-09-18T11:43:32.107Z,928.64
2018-09-18T11:44:32.066Z,928.63
2018-09-18T11:45:32.101Z,928.64
2018-09-18T11:46:31.985Z,928.69
2018-09-18T11:47:31.912Z,928.71
2018-09-18T11:48:32.143Z,928.72
2018-09-18T11:49:31.824Z,928.70
2018-09-18T11:50:31.774Z,928.68
2018-09-18T11:51:31.753Z,928.73
2018-09-18T11:52:31.690Z,928.73
2018-09-18T11:53:31.629Z,928.79
2018-09-18T11:54:31.899Z,928.75
2018-09-18T11:55:31.543Z,928.72
2018-09-18T11:56:31.505Z,928.70
2018-09-18T11:57:31.441Z,928.75
2018-09-18T11:58:31.420Z,928.80
2018-09-18T11:59:31.366Z,928.80
2018-09-18T12:00:31.620Z,928.77
2018-09-18T12:01:31.285Z,928.78
2018-09-18T12:02:31.287Z,928.72
2018-09-18T12:03:31.187Z,928.72
2018-09-18T12:04:31.131Z,928.69
2018-09-18T12:05:31.117Z,928.68
2018-09-18T12:06:31.128Z,928.71
2018-09-18T12:07:31.001Z,928.79
2018-09-18T12:08:30.948Z,928.79
2018-09-18T12:09:30.911Z,928.78
2018-09-18T12:10:30.857Z,928.82
2018-09-18T12:11:30.980Z,928.86
2018-09-18T12:12:30.935Z,928.85
2018-09-18T12:13:30.699Z,928.85
2018-09-18T12:14:30.672Z,928.88
2018-09-18T12:15:30.620Z,928.86
2018-09-18T12:16:30.584Z,928.90
2018-09-18T12:17:30.536Z,928.85
2018-09-18T12:18:30.578Z,928.87
2018-09-18T12:19:30.462Z,928.83
2018-09-18T12:20:30.377Z,928.85
2018-09-18T12:21:30.341Z,928.82
2018-09-18T12:22:30.399Z,928.78
2018-09-18T12:23:30.269Z,928.80
2018-09-18T12:24:30.308Z,928.82
2018-09-18T12:25:30.158Z,928.85
2018-09-18T12:26:30.119Z,928.88
2018-09-18T12:27:30.104Z,928.97
2018-09-18T12:28:30.015Z,928.96
2018-09-18T12:29:29.971Z,928.95